Time;durP1;ratioP1;P1;durP2;ratioP2;P2;SDS_P1;SDS_P2;PMS_P1;PMS_P2;Temp;Humidity;BMP_temperature;BMP_pressure;BME280_temperature;BME280_humidity;BME280_pressure;Samples;Min_cycle;Max_cycle;Signal;HPM_P1;HPM_P2
2022/07/30 00:00:09;;;;;;;0.60;0.60;;;18.10;99.90;19.30;101737.00;;;;5051111;28;20196;-72
2022/07/30 00:03:33;;;;;;;0.60;0.60;;;18.00;99.90;19.70;101731.00;;;;5051477;28;20196;-72
2022/07/30 00:06:36;;;;;;;0.60;0.60;;;18.10;99.90;19.80;101698.00;;;;5034521;28;20190;-73
2022/07/30 00:09:45;;;;;;;0.50;0.50;;;18.10;99.90;19.60;101712.00;;;;5050900;28;20192;-72
2022/07/30 00:12:51;;;;;;;0.60;0.60;;;18.10;99.90;19.50;101719.00;;;;5050444;28;20280;-73
2022/07/30 00:16:00;;;;;;;0.60;0.60;;;18.10;99.90;19.50;101719.00;;;;5046198;28;20184;-72
2022/07/30 00:19:03;;;;;;;0.60;0.60;;;18.00;99.90;19.30;101720.00;;;;5028977;28;20184;-72
2022/07/30 00:22:09;;;;;;;0.60;0.60;;;17.90;99.90;19.50;101716.00;;;;5030803;28;20697;-72
2022/07/30 00:25:13;;;;;;;0.60;0.60;;;18.00;99.90;19.40;101707.00;;;;5027541;28;20199;-72
2022/07/30 00:27:58;;;;;;;0.60;0.60;;;18.00;99.90;19.50;101698.00;;;;5033841;28;20246;-72
2022/07/30 00:30:53;;;;;;;0.57;0.57;;;18.10;99.90;19.60;101709.00;;;;5033691;28;20662;-72
2022/07/30 00:33:55;;;;;;;0.60;0.60;;;18.10;99.90;19.20;101705.00;;;;5034156;28;20192;-72
2022/07/30 00:36:58;;;;;;;0.70;0.70;;;17.90;99.90;19.40;101706.00;;;;5034126;28;20190;-71
2022/07/30 00:40:03;;;;;;;0.70;0.70;;;17.90;99.90;19.50;101711.00;;;;5031725;28;20185;-72
2022/07/30 00:43:04;;;;;;;0.60;0.60;;;18.00;99.90;19.20;101711.00;;;;5033792;28;20188;-72
2022/07/30 00:46:05;;;;;;;0.60;0.60;;;17.90;99.90;19.00;101705.00;;;;5033501;28;20225;-71
2022/07/30 00:49:06;;;;;;;0.60;0.60;;;17.70;99.90;19.30;101680.00;;;;5017084;28;20192;-72
2022/07/30 00:52:10;;;;;;;0.60;0.60;;;17.80;99.90;19.40;101701.00;;;;5033622;28;20283;-71
2022/07/30 00:55:29;;;;;;;0.60;0.60;;;17.80;99.90;19.10;101698.00;;;;5029442;28;20196;-72
2022/07/30 00:58:47;;;;;;;0.60;0.60;;;17.70;99.90;18.90;101702.00;;;;5014084;28;20182;-72
2022/07/30 01:01:33;;;;;;;0.70;0.70;;;17.60;99.90;19.00;101677.00;;;;5013282;28;20572;-72
2022/07/30 01:04:54;;;;;;;0.70;0.70;;;17.60;99.90;19.30;101704.00;;;;5013973;28;20203;-72
2022/07/30 01:08:03;;;;;;;0.80;0.80;;;17.70;99.90;18.90;101694.00;;;;5017416;28;20201;-71
2022/07/30 01:11:04;;;;;;;0.70;0.70;;;17.70;99.90;18.80;101677.00;;;;5033176;28;20274;-72
2022/07/30 01:13:53;;;;;;;0.60;0.60;;;17.50;99.90;18.90;101690.00;;;;5034199;28;20632;-72
2022/07/30 01:16:55;;;;;;;0.70;0.70;;;17.50;99.90;19.20;101665.00;;;;5033058;28;20284;-71
2022/07/30 01:20:01;;;;;;;0.60;0.60;;;17.60;99.90;19.10;101697.00;;;;5033130;28;20176;-72
2022/07/30 01:25:34;;;;;;;0.80;0.80;;;17.60;99.90;19.00;101706.00;;;;5034088;28;20191;-72
2022/07/30 01:28:48;;;;;;;0.60;0.60;;;17.60;99.90;19.20;101688.00;;;;5049498;28;20223;-72
2022/07/30 01:31:54;;;;;;;0.60;0.60;;;17.60;99.90;19.30;101672.00;;;;5032593;28;20225;-72
2022/07/30 01:34:57;;;;;;;0.60;0.60;;;17.70;99.90;19.40;101688.00;;;;5032768;28;20271;-72
2022/07/30 01:38:03;;;;;;;0.60;0.60;;;17.90;99.90;19.10;101702.00;;;;5032797;28;20211;-72
2022/07/30 01:41:05;;;;;;;0.60;0.60;;;17.90;99.90;19.10;101704.00;;;;5032494;28;20186;-72
2022/07/30 01:44:09;;;;;;;0.60;0.60;;;17.70;99.90;19.00;101686.00;;;;5032937;28;20216;-72
2022/07/30 01:47:13;;;;;;;0.60;0.60;;;17.60;99.90;18.80;101676.00;;;;5032575;28;20186;-72
2022/07/30 01:50:16;;;;;;;0.60;0.60;;;17.60;99.90;18.80;101700.00;;;;5032587;28;20174;-72
2022/07/30 01:53:08;;;;;;;0.70;0.70;;;17.50;99.90;19.00;101705.00;;;;5031211;28;20214;-72
2022/07/30 01:56:14;;;;;;;0.60;0.60;;;17.60;99.90;18.90;101700.00;;;;5032605;28;20187;-72
2022/07/30 01:59:19;;;;;;;0.60;0.60;;;17.40;99.90;18.70;101704.00;;;;5032386;28;20209;-72
2022/07/30 02:02:20;;;;;;;0.60;0.60;;;17.40;99.90;18.80;101706.00;;;;5032175;28;20245;-72
2022/07/30 02:05:25;;;;;;;0.60;0.60;;;17.30;99.90;18.50;101706.00;;;;5032641;28;20180;-72
2022/07/30 02:08:30;;;;;;;0.60;0.60;;;17.30;99.90;18.80;101709.00;;;;5017152;28;20278;-72
2022/07/30 02:16:26;;;;;;;0.60;0.60;;;17.30;99.90;18.70;101707.00;;;;5060685;28;20198;-72
2022/07/30 02:19:33;;;;;;;0.60;0.60;;;17.40;99.90;18.90;101710.00;;;;4953290;29;20187;-72
2022/07/30 02:22:48;;;;;;;0.60;0.60;;;17.30;99.90;18.80;101707.00;;;;4952825;29;20278;-72
2022/07/30 02:25:59;;;;;;;0.60;0.60;;;17.30;99.90;18.80;101704.00;;;;4953475;28;20189;-72
2022/07/30 02:29:03;;;;;;;1.27;1.17;;;17.20;99.90;18.70;101714.00;;;;4968871;28;20205;-72
2022/07/30 02:31:55;;;;;;;0.70;0.70;;;17.30;99.90;18.40;101708.00;;;;4968836;28;20269;-72
2022/07/30 02:35:13;;;;;;;0.60;0.60;;;17.20;99.90;18.80;101712.00;;;;4969152;28;20186;-72
2022/07/30 02:38:24;;;;;;;0.70;0.70;;;17.20;99.90;18.70;101714.00;;;;4952507;29;20704;-72
2022/07/30 02:41:28;;;;;;;0.70;0.70;;;17.30;99.90;18.60;101703.00;;;;4968891;28;20217;-72
2022/07/30 02:44:55;;;;;;;0.60;0.60;;;17.20;99.90;18.30;101706.00;;;;4953129;28;20613;-72
2022/07/30 02:48:01;;;;;;;0.60;0.60;;;17.10;99.90;18.50;101707.00;;;;4967807;28;20587;-72
2022/07/30 02:51:06;;;;;;;0.70;0.70;;;17.20;99.90;18.20;101714.00;;;;5031806;28;20195;-72
2022/07/30 02:53:52;;;;;;;0.70;0.70;;;17.00;99.90;18.60;101712.00;;;;5031808;28;20274;-71
2022/07/30 02:57:01;;;;;;;0.90;0.90;;;17.10;99.90;18.50;101702.00;;;;5032003;28;20184;-72
2022/07/30 03:00:27;;;;;;;0.70;0.70;;;17.10;99.90;18.40;101701.00;;;;5032022;28;20183;-72
2022/07/30 03:03:37;;;;;;;0.60;0.60;;;17.10;99.90;18.40;101697.00;;;;5019657;28;20199;-71
2022/07/30 03:06:40;;;;;;;0.90;0.90;;;17.10;99.90;18.40;101701.00;;;;5031607;28;20184;-72
2022/07/30 03:10:00;;;;;;;0.60;0.60;;;17.10;99.90;18.60;101687.00;;;;5032109;28;20183;-72
2022/07/30 03:13:06;;;;;;;0.70;0.70;;;17.10;99.90;18.30;101699.00;;;;5014875;28;20293;-72
2022/07/30 03:16:09;;;;;;;0.70;0.70;;;17.10;99.90;18.20;101704.00;;;;5031652;28;20188;-72
2022/07/30 03:19:12;;;;;;;0.67;0.67;;;16.90;99.90;18.30;101704.00;;;;5016284;28;20543;-72
2022/07/30 03:22:17;;;;;;;0.60;0.60;;;16.80;99.90;18.10;101701.00;;;;5018869;28;20189;-72
2022/07/30 03:25:23;;;;;;;0.70;0.70;;;16.80;99.90;18.20;101704.00;;;;5035472;28;20240;-73
2022/07/30 03:28:25;;;;;;;0.60;0.60;;;16.70;99.90;18.60;101685.00;;;;5035535;28;20195;-72
2022/07/30 03:31:15;;;;;;;0.60;0.60;;;16.90;99.90;18.50;101682.00;;;;5035105;28;20265;-72
2022/07/30 03:34:22;;;;;;;0.73;0.73;;;17.00;99.90;18.40;101685.00;;;;5035317;28;20556;-72
2022/07/30 03:37:24;;;;;;;0.73;0.73;;;17.00;99.90;18.10;101681.00;;;;5035126;28;20204;-74
2022/07/30 03:40:26;;;;;;;0.70;0.70;;;16.80;99.90;18.20;101689.00;;;;5034944;28;20324;-72
2022/07/30 03:43:30;;;;;;;0.80;0.80;;;16.80;99.90;18.00;101689.00;;;;5034767;28;20200;-72
2022/07/30 03:46:35;;;;;;;0.70;0.70;;;16.70;99.90;18.40;101694.00;;;;5035017;28;20239;-72
2022/07/30 03:49:37;;;;;;;0.70;0.70;;;16.80;99.90;18.30;101695.00;;;;5034743;28;20760;-72
2022/07/30 03:52:39;;;;;;;0.60;0.60;;;16.90;99.90;18.10;101691.00;;;;5034980;28;20301;-72
2022/07/30 03:56:03;;;;;;;0.60;0.60;;;16.90;99.90;18.40;101705.00;;;;5034930;28;20190;-72
2022/07/30 03:58:58;;;;;;;0.60;0.60;;;16.80;99.90;18.50;101705.00;;;;5035608;28;20178;-72
2022/07/30 04:02:03;;;;;;;0.60;0.60;;;17.00;99.90;18.30;101710.00;;;;5034983;28;20241;-72
2022/07/30 04:05:16;;;;;;;0.70;0.70;;;17.00;99.90;18.60;101686.00;;;;5034729;28;20645;-72
2022/07/30 04:08:22;;;;;;;0.80;0.80;;;17.00;99.90;18.50;101712.00;;;;5033518;28;20425;-72
2022/07/30 04:11:23;;;;;;;0.60;0.60;;;17.10;99.90;18.60;101687.00;;;;5053175;28;20206;-72
2022/07/30 04:14:33;;;;;;;0.70;0.70;;;17.10;99.90;18.70;101704.00;;;;5018181;28;20255;-72
2022/07/30 04:17:43;;;;;;;0.80;0.80;;;17.20;99.90;18.70;101705.00;;;;5018072;28;20604;-72
2022/07/30 04:20:54;;;;;;;0.80;0.80;;;17.20;99.90;18.50;101709.00;;;;5017758;28;20193;-72
2022/07/30 04:24:00;;;;;;;0.70;0.70;;;17.10;99.90;18.60;101710.00;;;;5034440;28;20649;-72
2022/07/30 04:27:08;;;;;;;0.70;0.70;;;17.10;99.90;18.80;101715.00;;;;5032682;28;20203;-72
2022/07/30 04:30:20;;;;;;;0.70;0.70;;;17.20;99.90;19.00;101725.00;;;;5017227;28;20538;-72
2022/07/30 04:33:50;;;;;;;0.70;0.70;;;17.40;99.90;19.40;101730.00;;;;5017631;28;20588;-72
2022/07/30 04:36:45;;;;;;;0.70;0.70;;;17.60;99.90;19.60;101717.00;;;;5022530;28;20186;-72
2022/07/30 04:40:12;;;;;;;2.07;1.97;;;18.00;99.90;19.40;101720.00;;;;5033787;28;20326;-72
2022/07/30 04:43:14;;;;;;;1.03;1.03;;;18.00;99.90;19.30;101721.00;;;;5033970;28;20341;-72
2022/07/30 04:46:15;;;;;;;0.60;0.60;;;18.10;99.90;19.30;101723.00;;;;5017592;28;20169;-72
2022/07/30 04:49:20;;;;;;;0.70;0.70;;;18.00;99.90;19.80;101722.00;;;;5033283;28;20646;-72
2022/07/30 04:52:26;;;;;;;0.60;0.60;;;18.10;99.90;19.90;101715.00;;;;5017154;28;20296;-72
2022/07/30 04:55:31;;;;;;;0.60;0.60;;;18.30;99.90;20.60;101699.00;;;;5004204;28;20578;-72
2022/07/30 04:58:34;;;;;;;0.60;0.60;;;18.80;99.90;21.20;101720.00;;;;5033939;28;20230;-72
2022/07/30 05:01:38;;;;;;;0.70;0.70;;;19.30;99.90;22.00;101721.00;;;;5033668;28;20190;-72
2022/07/30 05:04:46;;;;;;;0.50;0.50;;;19.90;99.90;22.40;101734.00;;;;5066348;28;20183;-72
2022/07/30 05:08:08;;;;;;;0.80;0.80;;;20.50;99.90;22.50;101746.00;;;;5033551;28;20658;-72
2022/07/30 05:11:11;;;;;;;0.73;0.73;;;20.90;99.90;22.30;101713.00;;;;5033311;28;20184;-72
2022/07/30 05:14:17;;;;;;;2.13;1.95;;;20.80;99.90;20.90;101730.00;;;;5017057;28;20197;-72
2022/07/30 05:17:24;;;;;;;1.38;1.27;;;20.10;99.90;20.80;101722.00;;;;5034301;28;20189;-72
2022/07/30 05:20:28;;;;;;;0.60;0.60;;;19.90;99.90;20.70;101729.00;;;;5004686;28;20185;-72
2022/07/30 05:23:37;;;;;;;1.27;1.23;;;20.00;99.90;20.50;101733.00;;;;5016746;28;20209;-72
2022/07/30 05:26:44;;;;;;;0.30;0.30;;;20.00;99.90;19.80;101734.00;;;;5023291;28;20175;-72
2022/07/30 05:29:53;;;;;;;0.10;0.10;;;19.50;99.90;19.70;101743.00;;;;5016826;28;20195;-72
2022/07/30 05:32:56;;;;;;;1.30;1.30;;;18.80;99.90;19.80;101737.00;;;;5015993;28;20313;-72
2022/07/30 05:36:00;;;;;;;0.47;0.47;;;19.00;99.90;21.50;101741.00;;;;5033210;28;20174;-72
2022/07/30 05:38:53;;;;;;;0.73;0.73;;;19.90;99.90;23.00;101768.00;;;;5033177;28;20175;-72
2022/07/30 05:41:54;;;;;;;0.20;0.20;;;21.20;99.90;21.60;101736.00;;;;5046166;28;20194;-72
2022/07/30 05:45:16;;;;;;;2.17;1.77;;;20.50;99.90;21.30;101741.00;;;;5016486;28;20265;-72
2022/07/30 05:48:27;;;;;;;2.28;2.08;;;20.20;99.90;21.30;101752.00;;;;5032844;28;20187;-73
2022/07/30 05:51:28;;;;;;;0.40;0.40;;;20.10;99.90;23.30;101759.00;;;;5034952;28;20550;-73
2022/07/30 05:54:19;;;;;;;0.20;0.20;;;21.10;99.90;25.70;101802.00;;;;5016258;28;20549;-72
2022/07/30 05:57:23;;;;;;;0.10;0.10;;;23.00;99.90;27.80;101837.00;;;;5032307;28;20264;-73
2022/07/30 06:00:31;;;;;;;1.23;0.95;;;24.90;99.90;29.60;101869.00;;;;5065211;28;20186;-72
2022/07/30 06:03:35;;;;;;;0.10;0.10;;;26.70;99.90;29.90;101876.00;;;;5048560;28;20244;-72
2022/07/30 06:06:44;;;;;;;0.10;0.10;;;27.70;99.90;31.40;101883.00;;;;5032707;28;20173;-74
2022/07/30 06:09:46;;;;;;;0.10;0.10;;;28.70;99.90;32.30;101893.00;;;;5015658;28;20296;-73
2022/07/30 06:13:08;;;;;;;0.10;0.10;;;29.90;99.90;33.30;101876.00;;;;5033344;28;20217;-75
2022/07/30 06:16:11;;;;;;;0.10;0.10;;;30.50;99.90;34.60;101900.00;;;;5021973;28;20246;-73
2022/07/30 06:19:15;;;;;;;0.10;0.10;;;31.60;99.90;35.40;101906.00;;;;5019848;28;20266;-74
2022/07/30 06:22:36;;;;;;;0.10;0.10;;;32.30;99.90;35.30;101903.00;;;;5033218;28;20253;-74
2022/07/30 06:25:54;;;;;;;0.10;0.10;;;33.00;99.90;36.20;101912.00;;;;5015540;28;20179;-74
2022/07/30 06:28:58;;;;;;;0.10;0.10;;;33.40;99.90;37.40;101908.00;;;;5031237;28;20191;-74
2022/07/30 06:31:59;;;;;;;0.10;0.10;;;34.20;99.90;37.00;101910.00;;;;5033165;28;20214;-75
2022/07/30 06:35:18;;;;;;;0.10;0.10;;;34.60;98.00;37.10;101918.00;;;;5032062;28;20189;-75
2022/07/30 06:38:44;;;;;;;0.10;0.10;;;34.60;97.40;36.20;101927.00;;;;5014939;28;20199;-75
2022/07/30 06:41:58;;;;;;;0.10;0.10;;;35.10;96.50;37.60;101934.00;;;;5032110;28;20601;-75
2022/07/30 06:45:09;;;;;;;0.10;0.10;;;34.70;96.20;35.30;101938.00;;;;5039622;28;20590;-74
2022/07/30 06:48:19;;;;;;;0.10;0.10;;;33.90;95.70;35.50;101951.00;;;;5004437;28;20190;-74
2022/07/30 06:51:11;;;;;;;0.10;0.10;;;33.30;96.50;35.70;101954.00;;;;5048445;28;20282;-73
2022/07/30 06:54:15;;;;;;;0.10;0.10;;;33.40;96.40;35.80;101931.00;;;;5016807;28;20579;-74
2022/07/30 06:57:59;;;;;;;0.10;0.10;;;33.60;95.90;34.80;101965.00;;;;5035821;28;20186;-74
2022/07/30 07:00:57;;;;;;;0.10;0.10;;;32.90;96.20;32.40;101982.00;;;;5021339;28;20190;-75
2022/07/30 07:04:07;;;;;;;1.63;0.88;;;31.20;97.70;33.70;101969.00;;;;5043331;28;20645;-76
2022/07/30 07:06:59;;;;;;;0.30;0.30;;;31.50;97.70;34.80;101962.00;;;;5019115;28;20692;-76
2022/07/30 07:10:06;;;;;;;0.10;0.10;;;32.40;96.90;35.50;101955.00;;;;5049404;28;20191;-76
2022/07/30 07:13:18;;;;;;;0.10;0.10;;;33.00;96.30;35.00;101967.00;;;;5018984;28;20198;-76
2022/07/30 07:16:27;;;;;;;0.30;0.30;;;33.50;95.30;34.50;101969.00;;;;5030392;28;20191;-75
2022/07/30 07:23:47;;;;;;;0.30;0.30;;;32.80;95.20;34.40;101975.00;;;;5016916;28;20223;-75
2022/07/30 07:27:15;;;;;;;0.10;0.10;;;32.70;95.70;34.00;101976.00;;;;5048783;28;20206;-75
2022/07/30 07:30:26;;;;;;;1.20;0.85;;;32.50;95.60;34.80;101981.00;;;;5016349;28;20160;-75
2022/07/30 07:33:27;;;;;;;0.10;0.10;;;32.80;95.30;34.00;101986.00;;;;5031534;28;20244;-75
2022/07/30 07:37:14;;;;;;;0.10;0.10;;;32.50;95.50;33.70;101980.00;;;;5014785;28;20192;-75
2022/07/30 07:48:50;;;;;;;0.20;0.20;;;31.80;95.70;31.20;102002.00;;;;4988710;28;20193;-75
2022/07/30 07:52:01;;;;;;;0.10;0.10;;;32.10;94.80;30.00;102010.00;;;;4931083;29;20252;-75
2022/07/30 07:54:57;;;;;;;0.10;0.10;;;29.80;97.00;30.90;101966.00;;;;4939496;28;20182;-75
2022/07/30 08:04:42;;;;;;;0.10;0.10;;;32.10;95.40;33.90;101981.00;;;;4882616;29;20203;-75
2022/07/30 08:10:32;;;;;;;0.10;0.10;;;32.00;94.00;30.60;101986.00;;;;4861099;29;20204;-76
2022/07/30 08:21:18;;;;;;;0.10;0.10;;;33.00;93.60;36.90;101943.00;;;;4897813;29;20198;-69
2022/07/30 08:24:50;;;;;;;0.00;0.00;;;34.80;91.80;34.40;101950.00;;;;4894871;29;20253;-72
2022/07/30 08:28:08;;;;;;;0.13;0.13;;;34.00;90.30;35.50;101944.00;;;;4920213;29;20190;-73
2022/07/30 08:31:29;;;;;;;0.10;0.10;;;33.10;91.50;36.40;101947.00;;;;4904094;29;20310;-71
2022/07/30 08:34:50;;;;;;;0.15;0.15;;;34.10;89.80;35.30;101952.00;;;;4904108;29;20194;-68
2022/07/30 08:38:14;;;;;;;0.10;0.10;;;33.90;88.80;32.80;101936.00;;;;4936445;28;20637;-74
2022/07/30 08:45:07;;;;;;;0.10;0.10;;;31.50;90.00;29.80;101992.00;;;;5014294;28;20206;-71
2022/07/30 08:48:31;;;;;;;0.10;0.10;;;30.30;90.50;35.00;101972.00;;;;5013888;28;20206;-75
2022/07/30 08:51:34;;;;;;;0.10;0.10;;;31.80;90.80;31.90;101987.00;;;;5028179;28;20192;-74
2022/07/30 08:54:18;;;;;;;0.10;0.10;;;31.30;90.50;30.10;101985.00;;;;5017156;28;20543;-69
2022/07/30 08:57:12;;;;;;;0.10;0.10;;;29.00;91.70;28.80;101989.00;;;;5017550;28;20178;-73
2022/07/30 09:00:16;;;;;;;0.10;0.10;;;29.10;91.20;27.70;101998.00;;;;5016751;28;20218;-70
2022/07/30 09:03:19;;;;;;;0.10;0.10;;;27.60;93.00;30.60;101988.00;;;;5016346;28;20218;-72
2022/07/30 09:09:28;;;;;;;0.10;0.10;;;28.50;93.50;32.80;101977.00;;;;5040843;28;20201;-76
2022/07/30 09:15:56;;;;;;;0.28;0.28;;;28.70;92.60;31.20;101997.00;;;;5053207;28;20189;-70
2022/07/30 10:47:33;;;;;;;0.10;0.10;;;26.10;96.80;28.20;101991.00;;;;5110782;28;20679;-68
2022/07/30 10:51:10;;;;;;;0.30;0.30;;;26.40;98.00;28.80;101988.00;;;;5105390;28;20607;-66
2022/07/30 10:54:55;;;;;;;0.20;0.20;;;27.00;96.20;29.80;101977.00;;;;5060252;28;20194;-66
2022/07/30 10:58:00;;;;;;;0.40;0.40;;;27.70;96.40;26.00;101979.00;;;;5092632;28;20238;-66
2022/07/30 11:00:55;;;;;;;0.22;0.22;;;25.70;98.20;26.30;101984.00;;;;5092391;28;20176;-66
2022/07/30 11:04:21;;;;;;;0.10;0.10;;;25.20;99.90;28.10;101980.00;;;;5110264;28;20187;-68
2022/07/30 11:07:26;;;;;;;1.48;1.38;;;25.90;99.90;29.50;101970.00;;;;5091523;28;20645;-67
2022/07/30 11:10:36;;;;;;;0.10;0.10;;;27.10;97.70;30.40;101965.00;;;;5078885;28;20212;-66
2022/07/30 11:13:57;;;;;;;0.10;0.10;;;28.00;96.60;31.10;101963.00;;;;5091829;28;20196;-66
2022/07/30 11:16:54;;;;;;;0.30;0.30;;;28.70;95.50;29.30;101956.00;;;;5098192;28;20545;-68
2022/07/30 11:20:06;;;;;;;1.00;0.82;;;28.50;94.70;29.60;101967.00;;;;5098620;28;20682;-69
2022/07/30 11:23:35;;;;;;;1.90;1.63;;;28.10;96.00;27.90;101974.00;;;;5110227;28;20189;-66
2022/07/30 12:03:52;;;;;;;1.17;0.90;;;29.90;95.30;31.40;101936.00;;;;4984537;28;20227;-66
2022/07/30 12:06:58;;;;;;;0.52;0.52;;;30.20;94.30;29.80;101937.00;;;;4983268;28;20203;-67
2022/07/30 12:28:41;;;;;;;2.92;0.88;;;27.10;96.50;28.30;101955.00;;;;5021210;28;20348;-67
2022/07/30 12:31:45;;;;;;;0.27;0.27;;;27.30;96.10;27.80;101924.00;;;;4992578;28;20462;-66
2022/07/30 12:34:35;;;;;;;0.10;0.10;;;26.60;96.90;28.30;101957.00;;;;5012353;28;20920;-65
2022/07/30 12:37:37;;;;;;;1.00;0.93;;;27.00;96.60;28.10;101915.00;;;;5046892;28;20189;-66
2022/07/30 12:40:30;;;;;;;0.20;0.20;;;26.60;97.00;30.10;101907.00;;;;5022171;28;20185;-65
2022/07/30 12:43:47;;;;;;;0.10;0.10;;;27.40;97.40;29.90;101927.00;;;;5070626;28;20268;-66
2022/07/30 12:46:37;;;;;;;0.38;0.38;;;28.20;95.40;28.50;101918.00;;;;5058231;28;20224;-65
2022/07/30 12:49:28;;;;;;;0.10;0.10;;;27.30;95.70;29.80;101917.00;;;;5076457;28;20192;-66
2022/07/30 12:52:30;;;;;;;0.40;0.40;;;27.90;95.50;28.80;101926.00;;;;5060247;28;20669;-67
2022/07/30 12:55:23;;;;;;;0.13;0.13;;;27.40;95.60;29.50;101902.00;;;;5058883;28;20275;-66
2022/07/30 12:58:06;;;;;;;0.10;0.10;;;27.60;96.10;30.70;101910.00;;;;5076357;28;20188;-65
2022/07/30 13:01:40;;;;;;;0.10;0.10;;;28.30;96.10;31.10;101915.00;;;;5075467;28;20193;-64
2022/07/30 13:04:30;;;;;;;0.22;0.22;;;29.00;94.90;29.80;101909.00;;;;5076546;28;20220;-63
2022/07/30 13:07:56;;;;;;;0.10;0.10;;;28.80;93.60;28.90;101929.00;;;;5062006;28;20629;-66
2022/07/30 13:10:59;;;;;;;0.40;0.40;;;27.40;95.50;28.60;101923.00;;;;5054931;28;20556;-66
2022/07/30 13:13:42;;;;;;;0.63;0.63;;;27.40;95.20;28.70;101922.00;;;;5059292;28;20549;-66
2022/07/30 13:16:33;;;;;;;0.10;0.10;;;27.40;94.80;29.70;101919.00;;;;5059382;28;20185;-66
2022/07/30 13:19:19;;;;;;;0.10;0.10;;;27.70;94.90;30.70;101902.00;;;;5071405;28;20188;-66
2022/07/30 13:22:23;;;;;;;0.65;0.60;;;28.50;94.40;29.00;101914.00;;;;5075505;28;20181;-66
2022/07/30 13:25:10;;;;;;;4.25;3.92;;;28.00;93.80;27.90;101916.00;;;;5076204;28;20211;-66
2022/07/30 13:28:16;;;;;;;3.10;1.45;;;27.00;94.90;28.20;101911.00;;;;5059589;28;20219;-66
2022/07/30 13:31:04;;;;;;;0.50;0.50;;;26.90;95.10;27.80;101921.00;;;;5060886;28;20550;-66
2022/07/30 13:33:51;;;;;;;0.20;0.20;;;26.70;95.80;28.20;101890.00;;;;5059592;28;20275;-66
2022/07/30 13:36:54;;;;;;;0.20;0.20;;;26.60;96.80;29.50;101904.00;;;;5092698;28;20203;-66
2022/07/30 13:39:58;;;;;;;0.10;0.10;;;27.30;95.90;30.00;101904.00;;;;5062922;28;20271;-65
2022/07/30 13:43:06;;;;;;;0.10;0.10;;;27.70;95.70;30.70;101901.00;;;;5060564;28;20169;-63
2022/07/30 13:46:07;;;;;;;0.10;0.10;;;28.60;94.70;30.20;101872.00;;;;5074993;28;20288;-66
2022/07/30 13:48:51;;;;;;;0.20;0.20;;;28.30;94.50;30.30;101899.00;;;;5075721;28;20074;-66
2022/07/30 13:51:54;;;;;;;0.10;0.10;;;28.40;94.50;29.90;101897.00;;;;5075433;28;20211;-66
2022/07/30 13:54:55;;;;;;;0.10;0.10;;;28.10;94.50;30.60;101887.00;;;;5075729;28;20215;-66
2022/07/30 13:57:57;;;;;;;0.20;0.20;;;28.40;94.40;28.10;101892.00;;;;5075331;28;20176;-66
2022/07/30 14:00:48;;;;;;;0.13;0.13;;;27.50;94.90;28.10;101895.00;;;;5075305;28;20215;-66
2022/07/30 14:03:36;;;;;;;0.10;0.10;;;27.00;95.40;29.30;101890.00;;;;5075947;28;20173;-66
2022/07/30 14:06:37;;;;;;;0.20;0.20;;;27.30;96.00;28.60;101889.00;;;;5075230;28;20232;-66
2022/07/30 14:09:28;;;;;;;0.55;0.55;;;27.60;95.20;27.90;101893.00;;;;5075614;28;20164;-66
2022/07/30 14:12:21;;;;;;;0.20;0.20;;;27.10;96.00;27.80;101886.00;;;;5058496;28;20213;-66
2022/07/30 14:15:24;;;;;;;0.10;0.10;;;26.70;96.40;29.20;101892.00;;;;5093427;28;20181;-65
2022/07/30 14:18:24;;;;;;;0.15;0.15;;;27.00;96.80;30.40;101876.00;;;;5058522;28;20207;-66
2022/07/30 14:21:15;;;;;;;0.10;0.10;;;27.90;96.40;30.00;101881.00;;;;5075420;28;20205;-66
2022/07/30 14:24:06;;;;;;;0.10;0.10;;;28.10;96.00;30.90;101870.00;;;;5075251;28;20272;-66
2022/07/30 14:27:08;;;;;;;0.50;0.50;;;28.60;95.50;29.10;101860.00;;;;5075211;28;20227;-66
2022/07/30 14:30:09;;;;;;;0.10;0.10;;;28.60;93.80;28.30;101869.00;;;;5074958;28;20259;-66
2022/07/30 14:33:10;;;;;;;0.30;0.30;;;27.30;94.10;28.40;101861.00;;;;5075351;28;20192;-66
2022/07/30 14:36:01;;;;;;;1.10;1.10;;;27.20;93.70;28.80;101857.00;;;;5058643;28;20183;-66
2022/07/30 14:38:48;;;;;;;0.65;0.65;;;27.30;92.80;28.90;101864.00;;;;5058324;28;20177;-66
2022/07/30 14:41:31;;;;;;;0.10;0.10;;;27.30;93.40;29.00;101859.00;;;;5074838;28;20532;-66
2022/07/30 14:44:33;;;;;;;0.60;0.60;;;27.40;93.10;29.40;101872.00;;;;5075002;28;20196;-67
2022/07/30 14:47:42;;;;;;;0.30;0.30;;;27.50;93.10;28.00;101856.00;;;;5092947;28;20187;-66
2022/07/30 14:50:45;;;;;;;0.10;0.10;;;27.00;92.70;28.90;101870.00;;;;5093221;28;20176;-67
2022/07/30 14:53:52;;;;;;;0.10;0.10;;;27.00;93.70;27.40;101864.00;;;;5092940;28;20626;-66
2022/07/30 14:56:38;;;;;;;0.10;0.10;;;26.60;93.80;28.90;101852.00;;;;5093156;28;20180;-67
2022/07/30 14:59:49;;;;;;;1.05;0.95;;;26.90;93.80;28.30;101849.00;;;;5075243;28;20180;-67
2022/07/30 15:03:10;;;;;;;0.10;0.10;;;26.90;93.50;28.50;101844.00;;;;5074587;28;20177;-67
2022/07/30 15:06:11;;;;;;;0.10;0.10;;;27.20;93.00;29.60;101843.00;;;;5076628;28;20276;-67
2022/07/30 15:09:15;;;;;;;0.30;0.30;;;27.40;93.10;29.40;101828.00;;;;5075009;28;20172;-66
2022/07/30 15:12:16;;;;;;;0.65;0.35;;;28.00;92.40;28.00;101846.00;;;;5074729;28;20620;-66
2022/07/30 15:15:18;;;;;;;0.25;0.25;;;27.20;92.40;28.70;101841.00;;;;5092804;28;20199;-66
2022/07/30 15:18:19;;;;;;;0.10;0.10;;;27.10;93.30;29.40;101840.00;;;;5092884;28;20172;-66
2022/07/30 15:21:26;;;;;;;0.20;0.20;;;27.40;93.00;30.40;101829.00;;;;5096709;28;20167;-66
2022/07/30 15:24:27;;;;;;;0.10;0.10;;;28.00;92.70;28.40;101830.00;;;;5063587;28;20238;-66
2022/07/30 15:27:36;;;;;;;0.20;0.20;;;27.70;92.00;29.30;101818.00;;;;5096359;28;20218;-67
2022/07/30 15:30:37;;;;;;;0.10;0.10;;;27.60;92.40;28.40;101831.00;;;;5079802;28;20628;-66
2022/07/30 15:33:43;;;;;;;0.10;0.10;;;27.40;92.20;29.20;101835.00;;;;5096380;28;20192;-66
2022/07/30 15:36:37;;;;;;;0.20;0.20;;;27.20;92.90;29.30;101828.00;;;;5096321;28;20183;-66
2022/07/30 15:39:23;;;;;;;1.05;1.05;;;27.60;92.40;28.50;101835.00;;;;5061811;28;20185;-67
2022/07/30 15:42:26;;;;;;;0.30;0.30;;;27.20;92.40;28.70;101849.00;;;;5078338;28;20577;-66
2022/07/30 15:45:27;;;;;;;0.47;0.47;;;27.20;92.60;29.10;101847.00;;;;5077913;28;20187;-66
2022/07/30 15:48:29;;;;;;;0.10;0.10;;;27.20;92.90;29.80;101830.00;;;;5077983;28;20637;-65
2022/07/30 15:51:31;;;;;;;0.10;0.10;;;27.70;92.30;30.00;101823.00;;;;5078193;28;20598;-65
2022/07/30 15:54:15;;;;;;;0.10;0.10;;;28.00;92.20;28.60;101792.00;;;;5077913;28;20505;-66
2022/07/30 15:57:19;;;;;;;0.10;0.10;;;27.50;91.70;29.00;101823.00;;;;5061072;28;20649;-67
2022/07/30 16:00:08;;;;;;;0.10;0.10;;;27.30;92.00;29.50;101826.00;;;;5068122;28;20184;-72
2022/07/30 16:02:59;;;;;;;0.20;0.20;;;27.60;92.10;30.50;101823.00;;;;5096734;28;20184;-66
2022/07/30 16:05:54;;;;;;;0.40;0.40;;;28.10;91.70;29.10;101827.00;;;;5046571;28;20192;-68
2022/07/30 16:08:44;;;;;;;0.70;0.43;;;27.80;91.60;28.80;101838.00;;;;5108109;28;20181;-68
2022/07/30 16:11:34;;;;;;;0.10;0.10;;;27.50;91.70;28.20;101833.00;;;;5062604;28;20245;-67
2022/07/30 16:21:39;;;;;;;0.10;0.10;;;27.60;91.50;29.10;101807.00;;;;5045688;28;20203;-68
2022/07/30 16:24:34;;;;;;;0.20;0.20;;;27.10;92.20;29.90;101805.00;;;;5045405;28;20188;-68
2022/07/30 16:27:45;;;;;;;0.10;0.10;;;27.70;91.60;28.30;101817.00;;;;5094115;28;20638;-69
2022/07/30 16:30:49;;;;;;;0.43;0.43;;;27.00;91.80;28.10;101808.00;;;;5077414;28;20181;-68
2022/07/30 16:52:50;;;;;;;0.52;0.52;;;26.40;92.70;28.00;101805.00;;;;5094260;28;20343;-69
2022/07/30 16:55:46;;;;;;;0.20;0.20;;;26.40;92.70;27.70;101809.00;;;;5081762;28;20185;-68
2022/07/30 16:58:41;;;;;;;0.73;0.73;;;26.50;92.80;28.10;101791.00;;;;5061252;28;20185;-68
2022/07/30 17:01:45;;;;;;;0.10;0.10;;;26.60;92.70;28.20;101801.00;;;;5076011;28;20193;-68
2022/07/30 17:04:40;;;;;;;0.10;0.10;;;26.60;93.00;28.60;101785.00;;;;5076706;28;20226;-69
2022/07/30 17:08:00;;;;;;;0.52;0.52;;;26.90;92.70;28.90;101793.00;;;;5076003;28;20192;-68